Time;durP1;ratioP1;P1;durP2;ratioP2;P2;SDS_P1;SDS_P2;PMS_P1;PMS_P2;Temp;Humidity;BMP_temperature;BMP_pressure;BME280_temperature;BME280_humidity;BME280_pressure;Samples;Min_cycle;Max_cycle;Signal;HPM_P1;HPM_P2
2023/01/16 00:00:20;;;;;;;;;;;;;;;28.90;69.64;100988.97;5081417;27;70536;-34
2023/01/16 00:02:51;;;;;;;;;;;;;;;28.93;70.35;100998.53;5078435;27;66752;-33
2023/01/16 00:05:21;;;;;;;;;;;;;;;28.99;70.87;100997.72;5076576;27;69621;-34
2023/01/16 00:07:52;;;;;;;;;;;;;;;29.02;71.30;101004.59;5071422;27;66172;-33
2023/01/16 00:10:23;;;;;;;;;;;;;;;29.03;72.11;101006.22;5088119;27;70283;-34
2023/01/16 00:12:53;;;;;;;;;;;;;;;29.05;73.16;101023.09;5075908;27;66684;-34
2023/01/16 00:15:24;;;;;;;;;;;;;;;29.07;74.37;101021.03;5084785;27;69387;-34
2023/01/16 00:17:54;;;;;;;;;;;;;;;29.14;74.58;101027.28;5084439;27;66161;-34
2023/01/16 00:20:25;;;;;;;;;;;;;;;29.15;74.92;101039.75;5082002;27;70342;-34
2023/01/16 00:22:55;;;;;;;;;;;;;;;29.17;74.83;101035.81;5081815;27;67457;-35
2023/01/16 00:25:26;;;;;;;;;;;;;;;28.80;74.97;100985.84;5083804;27;70566;-38
2023/01/16 00:27:57;;;;;;;;;;;;;;;29.22;75.15;101051.38;5087959;27;66713;-38
2023/01/16 00:30:28;;;;;;;;;;;;;;;29.22;74.42;101046.00;5083676;27;71336;-36
2023/01/16 00:32:58;;;;;;;;;;;;;;;29.23;74.58;101057.66;5089132;27;65986;-39
2023/01/16 00:35:29;;;;;;;;;;;;;;;29.24;74.73;101060.13;5060791;27;68915;-38
2023/01/16 00:37:59;;;;;;;;;;;;;;;29.26;74.54;101068.03;5094253;27;66603;-37
2023/01/16 00:40:30;;;;;;;;;;;;;;;29.29;74.82;101065.75;5059935;27;70544;-36
2023/01/16 00:43:01;;;;;;;;;;;;;;;29.29;74.61;101068.47;5081307;27;67023;-37
2023/01/16 00:45:31;;;;;;;;;;;;;;;29.33;74.93;101079.69;5084349;27;70161;-37
2023/01/16 00:48:03;;;;;;;;;;;;;;;29.35;74.54;101081.16;5082944;27;67166;-38
2023/01/16 00:50:33;;;;;;;;;;;;;;;29.36;74.92;101080.13;5085326;27;70115;-38
2023/01/16 00:53:04;;;;;;;;;;;;;;;29.35;74.73;101078.44;5087144;27;65636;-39
2023/01/16 00:55:36;;;;;;;;;;;;;;;29.37;74.41;101086.34;5080712;27;69839;-37
2023/01/16 00:58:07;;;;;;;;;;;;;;;29.37;74.22;101092.59;5080238;27;66262;-38
2023/01/16 01:00:37;;;;;;;;;;;;;;;29.38;73.79;101096.94;5080238;27;69459;-37
2023/01/16 01:03:08;;;;;;;;;;;;;;;29.37;73.39;101100.69;5053012;27;65873;-37
2023/01/16 01:05:39;;;;;;;;;;;;;;;29.37;73.24;101108.81;5090458;27;70516;-39
2023/01/16 01:08:10;;;;;;;;;;;;;;;29.39;73.31;101117.53;5077510;27;66347;-38
2023/01/16 01:10:40;;;;;;;;;;;;;;;29.38;72.92;101115.84;5088120;27;70759;-38
2023/01/16 01:13:11;;;;;;;;;;;;;;;29.43;73.32;101117.13;5076680;27;66665;-38
2023/01/16 01:15:42;;;;;;;;;;;;;;;29.43;73.06;101127.94;5091110;27;69282;-38
2023/01/16 01:18:13;;;;;;;;;;;;;;;29.44;72.87;101124.19;5077028;27;66951;-37
2023/01/16 01:20:43;;;;;;;;;;;;;;;29.46;72.26;101127.53;5084714;27;70274;-38
2023/01/16 01:23:14;;;;;;;;;;;;;;;29.48;72.19;101125.47;5079049;27;65935;-37
2023/01/16 01:25:44;;;;;;;;;;;;;;;29.48;72.52;101136.28;5075979;27;70662;-38
2023/01/16 01:28:16;;;;;;;;;;;;;;;29.49;72.28;101133.34;5081238;27;65688;-38
2023/01/16 01:30:47;;;;;;;;;;;;;;;29.51;72.03;101142.09;5088845;27;69762;-38
2023/01/16 01:33:17;;;;;;;;;;;;;;;29.51;72.08;101144.78;5078777;27;66157;-39
2023/01/16 01:35:48;;;;;;;;;;;;;;;29.53;72.19;101144.56;5083643;27;70269;-37
2023/01/16 01:38:19;;;;;;;;;;;;;;;29.53;71.95;101140.03;5085599;27;65396;-38
2023/01/16 01:40:50;;;;;;;;;;;;;;;29.54;71.68;101140.84;5081883;27;70837;-38
2023/01/16 01:43:20;;;;;;;;;;;;;;;29.53;71.97;101155.38;5061149;27;66307;-37
2023/01/16 01:45:55;;;;;;;;;;;;;;;29.54;71.55;101151.66;5078022;27;69758;-40
2023/01/16 01:48:29;;;;;;;;;;;;;;;29.55;71.53;101164.13;5089018;27;65991;-37
2023/01/16 01:51:12;;;;;;;;;;;;;;;29.56;71.59;101163.09;5056751;27;70599;-39
2023/01/16 01:53:51;;;;;;;;;;;;;;;29.57;72.05;101152.09;5086370;27;66657;-38
2023/01/16 01:56:28;;;;;;;;;;;;;;;29.60;71.62;101164.34;5080166;27;70293;-37
2023/01/16 01:59:01;;;;;;;;;;;;;;;29.60;71.38;101156.25;5067949;27;67059;-37
2023/01/16 02:01:32;;;;;;;;;;;;;;;29.61;71.61;101157.91;5080427;27;70259;-41
2023/01/16 02:04:06;;;;;;;;;;;;;;;29.64;71.17;101154.81;5075151;27;66461;-39
2023/01/16 02:06:45;;;;;;;;;;;;;;;29.64;71.60;101167.50;5084083;27;70153;-42
2023/01/16 02:09:16;;;;;;;;;;;;;;;29.67;71.67;101175.19;5072317;27;66629;-37
2023/01/16 02:11:50;;;;;;;;;;;;;;;29.66;71.53;101166.25;5090468;27;69371;-37
2023/01/16 02:14:23;;;;;;;;;;;;;;;29.70;71.39;101172.94;5080378;27;66033;-38
2023/01/16 02:20:07;;;;;;;;;;;;;;;29.72;71.66;101184.38;5082304;27;66415;-40
2023/01/16 02:22:55;;;;;;;;;;;;;;;29.75;71.88;101186.66;5079955;27;69652;-41
2023/01/16 02:25:44;;;;;;;;;;;;;;;29.76;71.70;101182.94;5091544;27;67392;-40
2023/01/16 02:28:17;;;;;;;;;;;;;;;29.77;71.60;101184.59;5077789;27;69972;-40
2023/01/16 02:31:06;;;;;;;;;;;;;;;29.78;70.93;101188.97;5078574;27;66283;-38
2023/01/16 02:33:56;;;;;;;;;;;;;;;29.80;71.28;101180.63;5060519;27;69933;-38
2023/01/16 02:36:26;;;;;;;;;;;;;;;29.82;71.33;101181.28;5049778;28;66947;-38
2023/01/16 02:39:09;;;;;;;;;;;;;;;29.84;70.77;101174.63;5082144;27;70011;-37
2023/01/16 02:41:51;;;;;;;;;;;;;;;29.84;70.95;101169.22;5075603;27;65786;-40
2023/01/16 02:44:30;;;;;;;;;;;;;;;29.87;70.67;101172.56;5072496;27;69821;-38
2023/01/16 02:47:19;;;;;;;;;;;;;;;29.88;70.61;101176.91;5080245;27;65939;-39
2023/01/16 02:50:16;;;;;;;;;;;;;;;29.89;70.02;101173.97;5080087;27;70329;-41
2023/01/16 02:53:12;;;;;;;;;;;;;;;29.90;70.70;101169.44;5071353;27;65689;-39
2023/01/16 02:55:47;;;;;;;;;;;;;;;29.93;70.69;101171.72;5066059;27;68630;-41
2023/01/16 02:58:18;;;;;;;;;;;;;;;29.94;70.18;101162.56;5083715;27;66665;-40
2023/01/16 03:00:53;;;;;;;;;;;;;;;29.94;70.19;101163.38;5073989;27;70840;-39
2023/01/16 03:03:31;;;;;;;;;;;;;;;29.96;69.95;101160.47;5086546;27;66654;-38
2023/01/16 03:06:21;;;;;;;;;;;;;;;29.98;70.31;101163.81;5078079;27;69395;-39
2023/01/16 03:09:01;;;;;;;;;;;;;;;29.99;69.80;101160.06;5064334;27;65519;-38
2023/01/16 03:11:37;;;;;;;;;;;;;;;30.01;69.58;101158.00;5083388;27;69677;-38
2023/01/16 03:14:20;;;;;;;;;;;;;;;30.03;69.64;101158.59;5072926;27;67053;-38
2023/01/16 03:16:53;;;;;;;;;;;;;;;30.03;69.95;101151.34;5079628;27;69766;-39
2023/01/16 03:19:24;;;;;;;;;;;;;;;30.04;69.88;101152.16;5078549;27;66218;-39
2023/01/16 03:22:22;;;;;;;;;;;;;;;30.08;70.07;101142.56;5082897;27;69881;-38
2023/01/16 03:25:20;;;;;;;;;;;;;;;30.09;69.31;101149.66;5080080;27;66585;-38
2023/01/16 03:27:57;;;;;;;;;;;;;;;30.09;69.59;101146.97;5077200;27;70383;-37
2023/01/16 03:30:39;;;;;;;;;;;;;;;30.11;69.39;101150.28;5083809;27;67028;-38
2023/01/16 03:33:28;;;;;;;;;;;;;;;30.13;69.23;101145.50;5078430;27;69926;-38
2023/01/16 03:36:09;;;;;;;;;;;;;;;30.15;69.52;101148.84;5087172;27;66640;-38
2023/01/16 03:38:42;;;;;;;;;;;;;;;30.16;69.24;101139.66;5077362;27;70451;-40
2023/01/16 03:41:15;;;;;;;;;;;;;;;30.17;69.25;101141.34;5054050;28;65902;-37
2023/01/16 03:43:50;;;;;;;;;;;;;;;30.19;69.25;101139.25;5084691;27;70178;-38
2023/01/16 03:46:27;;;;;;;;;;;;;;;30.28;68.45;101137.19;5072717;28;65970;-38
2023/01/16 03:49:09;;;;;;;;;;;;;;;30.35;68.30;101132.59;5088780;27;69916;-39
2023/01/16 03:51:43;;;;;;;;;;;;;;;30.42;68.16;101121.75;5082282;27;65960;-39
2023/01/16 03:54:17;;;;;;;;;;;;;;;30.47;68.18;101117.38;5087963;27;70684;-38
2023/01/16 03:57:01;;;;;;;;;;;;;;;30.53;67.59;101115.69;5084988;27;66121;-38
2023/01/16 03:59:33;;;;;;;;;;;;;;;30.57;67.37;101105.28;5081362;27;70710;-38
2023/01/16 04:02:17;;;;;;;;;;;;;;;30.61;67.34;101110.03;5080442;27;66642;-42
2023/01/16 04:05:00;;;;;;;;;;;;;;;30.64;66.72;101109.59;5093137;27;70636;-42
2023/01/16 04:07:35;;;;;;;;;;;;;;;30.68;66.71;101110.84;5080997;27;67001;-38
2023/01/16 04:10:08;;;;;;;;;;;;;;;30.70;66.72;101106.06;5082822;27;68920;-38
2023/01/16 04:12:44;;;;;;;;;;;;;;;30.73;66.20;101102.94;5091215;27;65940;-38
2023/01/16 04:15:16;;;;;;;;;;;;;;;30.76;66.05;101090.84;5083977;27;70726;-40
2023/01/16 04:17:47;;;;;;;;;;;;;;;30.78;66.03;101091.44;5085787;27;65987;-38
2023/01/16 04:20:19;;;;;;;;;;;;;;;30.81;65.83;101098.34;5076654;27;69889;-39
2023/01/16 04:22:50;;;;;;;;;;;;;;;30.82;65.51;101086.47;5083422;27;66516;-40
2023/01/16 04:25:21;;;;;;;;;;;;;;;30.85;65.35;101086.03;5072514;27;71429;-38
2023/01/16 04:27:51;;;;;;;;;;;;;;;30.86;65.45;101079.56;5089676;27;65342;-39
2023/01/16 04:30:22;;;;;;;;;;;;;;;30.88;65.37;101078.31;5084840;27;70245;-38
2023/01/16 04:32:53;;;;;;;;;;;;;;;30.90;65.15;101072.69;5081609;27;67008;-39
2023/01/16 04:35:23;;;;;;;;;;;;;;;30.92;65.05;101067.88;5048726;27;68917;-38
2023/01/16 04:37:54;;;;;;;;;;;;;;;30.93;64.70;101064.13;5085434;27;67083;-38
2023/01/16 04:40:24;;;;;;;;;;;;;;;30.94;64.70;101053.06;5085379;27;70331;-39
2023/01/16 04:42:55;;;;;;;;;;;;;;;30.97;64.58;101054.50;5086229;27;66593;-39
2023/01/16 04:45:26;;;;;;;;;;;;;;;30.98;64.96;101048.06;5055757;28;69806;-37
2023/01/16 04:47:56;;;;;;;;;;;;;;;30.81;64.04;101039.56;5077252;27;66656;-43
2023/01/16 04:50:27;;;;;;;;;;;;;;;30.73;64.75;101040.66;5083140;27;71531;-39
2023/01/16 04:52:58;;;;;;;;;;;;;;;30.68;65.03;101040.47;5081758;27;66488;-39
2023/01/16 04:55:30;;;;;;;;;;;;;;;30.65;64.97;101026.53;5088352;27;70515;-40
2023/01/16 04:58:00;;;;;;;;;;;;;;;30.60;65.17;101024.47;5070506;27;66775;-38
2023/01/16 05:00:32;;;;;;;;;;;;;;;30.59;64.90;101017.38;5083508;27;70165;-39
2023/01/16 05:03:02;;;;;;;;;;;;;;;30.61;65.29;101009.03;5081579;27;65241;-42
2023/01/16 05:05:33;;;;;;;;;;;;;;;30.62;64.67;101003.41;5085897;27;69890;-39
2023/01/16 05:08:16;;;;;;;;;;;;;;;30.63;65.10;101006.94;5068551;27;66933;-39
2023/01/16 05:10:47;;;;;;;;;;;;;;;30.63;64.62;100996.94;5073150;27;69337;-40
2023/01/16 05:13:17;;;;;;;;;;;;;;;30.65;63.77;100981.31;5080901;27;67431;-38
2023/01/16 05:15:48;;;;;;;;;;;;;;;30.70;63.59;100977.94;5079557;27;70326;-39
2023/01/16 05:18:19;;;;;;;;;;;;;;;30.81;63.56;100981.88;5085932;27;65730;-40
2023/01/16 05:20:50;;;;;;;;;;;;;;;30.90;63.52;100970.59;5081140;27;70644;-39
2023/01/16 05:23:20;;;;;;;;;;;;;;;30.97;63.68;100970.53;5095079;27;66708;-39
2023/01/16 05:25:51;;;;;;;;;;;;;;;31.03;63.42;100956.09;5082003;27;70101;-40
2023/01/16 05:28:22;;;;;;;;;;;;;;;31.07;63.57;100951.91;5084468;27;66319;-40
2023/01/16 05:30:53;;;;;;;;;;;;;;;31.12;63.42;100946.66;5079841;27;70196;-40
2023/01/16 05:33:23;;;;;;;;;;;;;;;31.15;63.51;100940.81;5087757;27;65593;-38
2023/01/16 05:35:54;;;;;;;;;;;;;;;31.19;63.54;100933.06;5081476;27;69646;-39
2023/01/16 05:38:25;;;;;;;;;;;;;;;31.22;63.34;100926.38;5089364;27;67200;-41
2023/01/16 05:40:55;;;;;;;;;;;;;;;31.25;63.50;100926.75;5056282;27;70575;-41
2023/01/16 05:43:26;;;;;;;;;;;;;;;31.28;63.19;100917.34;5081621;27;65299;-40
2023/01/16 05:45:58;;;;;;;;;;;;;;;31.31;63.10;100919.59;5085093;27;69801;-39
2023/01/16 05:48:30;;;;;;;;;;;;;;;31.33;62.57;100910.19;5091374;27;66561;-39
2023/01/16 05:51:02;;;;;;;;;;;;;;;31.35;62.78;100905.41;5085044;27;70620;-39
2023/01/16 05:53:32;;;;;;;;;;;;;;;31.38;62.75;100898.75;5093264;27;66012;-39
2023/01/16 05:56:08;;;;;;;;;;;;;;;31.42;62.23;100894.50;5088019;27;69428;-40
2023/01/16 05:58:38;;;;;;;;;;;;;;;31.46;61.87;100890.31;5082850;27;65814;-40
2023/01/16 06:01:09;;;;;;;;;;;;;;;31.49;59.72;100875.50;5085500;27;70197;-39
2023/01/16 06:03:40;;;;;;;;;;;;;;;31.55;59.08;100866.44;5048592;27;65529;-39
2023/01/16 06:06:10;;;;;;;;;;;;;;;31.58;59.06;100863.28;5084454;27;69362;-38
2023/01/16 06:08:41;;;;;;;;;;;;;;;31.59;56.28;100862.22;5065231;27;66668;-38
2023/01/16 06:11:11;;;;;;;;;;;;;;;31.63;55.98;100849.06;5064058;27;69710;-38
2023/01/16 06:13:43;;;;;;;;;;;;;;;31.68;55.86;100849.19;5083180;27;66573;-38
2023/01/16 06:16:13;;;;;;;;;;;;;;;31.70;56.55;100844.38;5076296;27;70308;-38
2023/01/16 06:18:44;;;;;;;;;;;;;;;31.72;57.54;100840.38;5080550;27;66034;-40
2023/01/16 06:21:15;;;;;;;;;;;;;;;31.74;58.21;100838.28;5065936;28;69727;-38
2023/01/16 06:23:45;;;;;;;;;;;;;;;31.74;58.47;100827.44;5083465;27;66858;-39
2023/01/16 06:26:16;;;;;;;;;;;;;;;31.75;58.62;100817.41;5080736;27;70919;-39
2023/01/16 06:28:47;;;;;;;;;;;;;;;31.76;58.56;100810.91;5084756;27;65400;-39
2023/01/16 06:31:17;;;;;;;;;;;;;;;31.76;58.76;100806.34;5071313;27;69682;-40
2023/01/16 06:33:48;;;;;;;;;;;;;;;31.78;58.46;100808.81;5088276;27;66450;-38
2023/01/16 06:36:19;;;;;;;;;;;;;;;31.79;58.59;100799.63;5082341;27;70525;-39
2023/01/16 06:38:50;;;;;;;;;;;;;;;31.82;58.90;100796.47;5090150;27;65943;-39
2023/01/16 06:41:20;;;;;;;;;;;;;;;31.83;58.99;100790.78;5080824;27;69476;-39
2023/01/16 06:43:51;;;;;;;;;;;;;;;31.85;59.05;100785.16;5083893;27;66569;-39
2023/01/16 06:46:22;;;;;;;;;;;;;;;31.87;59.08;100782.19;5085283;27;70353;-40
2023/01/16 06:48:52;;;;;;;;;;;;;;;31.87;58.98;100772.16;5064874;28;65445;-40
2023/01/16 06:51:24;;;;;;;;;;;;;;;31.88;58.96;100768.41;5086299;27;70602;-40
2023/01/16 06:53:54;;;;;;;;;;;;;;;31.91;58.86;100762.56;5067376;28;66026;-39
2023/01/16 06:56:25;;;;;;;;;;;;;;;31.92;59.16;100756.06;5081703;27;70587;-39
2023/01/16 06:58:55;;;;;;;;;;;;;;;31.93;58.80;100765.88;5079779;27;66559;-40
2023/01/16 07:01:26;;;;;;;;;;;;;;;31.94;59.08;100756.66;5084121;27;70288;-40
2023/01/16 07:03:57;;;;;;;;;;;;;;;31.97;58.86;100756.19;5069952;27;66100;-39
2023/01/16 07:06:28;;;;;;;;;;;;;;;31.98;59.04;100747.03;5071829;27;70335;-40
2023/01/16 07:08:59;;;;;;;;;;;;;;;31.99;58.85;100751.38;5089198;27;66743;-39
2023/01/16 07:11:29;;;;;;;;;;;;;;;32.00;59.02;100744.88;5081536;27;70517;-43
2023/01/16 07:22:38;;;;;;;;;;;;;;;32.08;58.03;100729.34;5086152;27;70566;-39
2023/01/16 07:25:12;;;;;;;;;;;;;;;32.10;57.68;100732.66;5090050;27;66184;-39
2023/01/16 07:27:45;;;;;;;;;;;;;;;32.13;56.99;100724.88;5085280;27;69819;-37
2023/01/16 07:30:17;;;;;;;;;;;;;;;32.16;52.57;100723.59;5076241;27;65469;-37
2023/01/16 07:32:48;;;;;;;;;;;;;;;32.21;52.96;100719.09;5074700;27;69819;-38
2023/01/16 07:35:19;;;;;;;;;;;;;;;32.21;52.66;100713.69;5083747;27;66464;-39
2023/01/16 07:37:52;;;;;;;;;;;;;;;32.21;52.48;100712.84;5075160;27;70728;-38
2023/01/16 07:40:24;;;;;;;;;;;;;;;32.23;52.43;100705.28;5082073;27;65143;-40
2023/01/16 07:42:55;;;;;;;;;;;;;;;32.24;52.50;100712.38;5089141;27;69326;-39
2023/01/16 07:45:25;;;;;;;;;;;;;;;32.26;52.50;100700.25;5082827;27;66684;-39
2023/01/16 07:47:57;;;;;;;;;;;;;;;32.28;52.86;100703.53;5067745;28;70483;-39
2023/01/16 07:50:28;;;;;;;;;;;;;;;32.30;52.81;100694.34;5084345;27;65682;-39
2023/01/16 07:52:59;;;;;;;;;;;;;;;32.31;52.83;100694.09;5089024;27;70400;-40
2023/01/16 07:55:29;;;;;;;;;;;;;;;32.33;53.22;100700.13;5080217;27;67306;-40
2023/01/16 07:58:00;;;;;;;;;;;;;;;32.33;53.36;100694.69;5080591;27;69158;-39
2023/01/16 08:00:31;;;;;;;;;;;;;;;32.36;53.54;100687.97;5083064;27;66523;-41
2023/01/16 08:03:01;;;;;;;;;;;;;;;32.37;54.02;100690.44;5082370;27;70462;-39
2023/01/16 08:05:33;;;;;;;;;;;;;;;32.39;54.10;100696.47;5081767;27;65461;-38
2023/01/16 08:08:03;;;;;;;;;;;;;;;32.40;53.97;100698.13;5082260;27;69393;-40
2023/01/16 08:10:34;;;;;;;;;;;;;;;32.41;53.90;100691.63;5083512;27;66765;-41
2023/01/16 08:13:05;;;;;;;;;;;;;;;32.41;54.04;100686.19;5079658;27;69517;-38
2023/01/16 08:15:36;;;;;;;;;;;;;;;32.42;53.99;100676.97;5090736;27;66546;-39
2023/01/16 08:18:06;;;;;;;;;;;;;;;32.44;53.98;100680.28;5072404;28;68878;-40
2023/01/16 08:20:37;;;;;;;;;;;;;;;32.46;53.94;100672.78;5081298;27;66271;-39
2023/01/16 08:23:08;;;;;;;;;;;;;;;32.22;54.35;100676.50;5081066;27;70124;-38
2023/01/16 08:25:39;;;;;;;;;;;;;;;32.01;55.20;100681.44;5076475;27;66027;-39
2023/01/16 08:28:09;;;;;;;;;;;;;;;31.88;55.79;100675.34;5078583;27;70310;-42
2023/01/16 08:30:40;;;;;;;;;;;;;;;31.81;56.14;100670.03;5085065;27;66412;-41
2023/01/16 08:33:11;;;;;;;;;;;;;;;31.77;56.45;100685.13;5085346;27;69872;-38
2023/01/16 08:35:41;;;;;;;;;;;;;;;31.73;56.58;100683.91;5077021;27;66605;-40
2023/01/16 08:38:12;;;;;;;;;;;;;;;31.69;57.01;100677.31;5077618;27;70342;-38
2023/01/16 08:40:43;;;;;;;;;;;;;;;31.68;56.85;100672.91;5079501;27;66875;-40
2023/01/16 08:51:39;;;;;;;;;;;;;;;31.59;57.23;100678.69;5079691;27;65942;-38
2023/01/16 08:54:10;;;;;;;;;;;;;;;31.58;57.57;100679.72;5076819;27;70394;-39
2023/01/16 08:56:42;;;;;;;;;;;;;;;31.58;57.33;100682.44;5060960;27;66002;-39
2023/01/16 08:59:13;;;;;;;;;;;;;;;31.58;57.97;100685.16;5081285;27;70570;-38
2023/01/16 09:01:44;;;;;;;;;;;;;;;31.58;58.59;100687.88;5081616;27;66039;-38
2023/01/16 09:04:15;;;;;;;;;;;;;;;31.57;58.69;100683.50;5077995;27;70759;-38
2023/01/16 09:06:46;;;;;;;;;;;;;;;31.58;58.49;100681.63;5080167;27;66480;-39
2023/01/16 09:09:16;;;;;;;;;;;;;;;31.56;58.82;100683.72;5078497;27;69027;-40
2023/01/16 09:14:41;;;;;;;;;;;;;;;31.54;59.08;100697.53;5078595;27;69823;-41
2023/01/16 09:17:13;;;;;;;;;;;;;;;31.54;59.23;100697.53;5078840;27;65550;-39
2023/01/16 09:19:43;;;;;;;;;;;;;;;31.54;59.55;100692.09;5077696;27;68824;-41
2023/01/16 09:22:32;;;;;;;;;;;;;;;31.54;59.13;100700.25;5075304;27;66635;-38
2023/01/16 09:25:04;;;;;;;;;;;;;;;31.52;59.39;100704.25;5077404;27;69387;-41
2023/01/16 09:27:34;;;;;;;;;;;;;;;31.50;59.88;100701.75;5061889;27;66380;-38
2023/01/16 09:30:05;;;;;;;;;;;;;;;31.53;60.14;100705.88;5077856;27;69883;-39
2023/01/16 09:32:36;;;;;;;;;;;;;;;31.50;59.92;100714.47;5079048;27;66710;-39
2023/01/16 09:35:07;;;;;;;;;;;;;;;31.49;59.96;100710.94;5076630;27;70179;-39
2023/01/16 09:37:40;;;;;;;;;;;;;;;31.48;60.20;100711.16;5076694;27;65676;-38
2023/01/16 09:40:16;;;;;;;;;;;;;;;31.46;60.07;100716.81;5078793;27;70312;-39
2023/01/16 09:46:01;;;;;;;;;;;;;;;31.42;60.70;100726.44;5042247;28;69918;-38
2023/01/16 09:48:36;;;;;;;;;;;;;;;31.46;61.27;100724.13;5043826;28;66324;-40
2023/01/16 09:51:10;;;;;;;;;;;;;;;31.47;61.89;100725.78;5063244;27;70310;-37
2023/01/16 09:59:54;;;;;;;;;;;;;;;31.48;62.31;100725.56;5043359;27;65112;-38
2023/01/16 10:02:25;;;;;;;;;;;;;;;31.50;62.06;100742.41;5088587;27;70876;-39
2023/01/16 10:04:56;;;;;;;;;;;;;;;31.52;62.41;100742.19;5084964;27;66165;-38
2023/01/16 10:07:36;;;;;;;;;;;;;;;31.52;63.11;100745.72;5081107;27;69693;-38
2023/01/16 10:10:07;;;;;;;;;;;;;;;31.50;63.04;100750.53;5080921;27;66428;-38
2023/01/16 10:12:41;;;;;;;;;;;;;;;31.53;63.77;100749.25;5081853;27;70513;-39
2023/01/16 10:15:24;;;;;;;;;;;;;;;31.51;63.80;100752.22;5076657;27;66439;-40
2023/01/16 10:18:01;;;;;;;;;;;;;;;31.49;65.04;100759.72;5077662;27;71032;-38
2023/01/16 10:20:35;;;;;;;;;;;;;;;31.51;65.17;100767.63;5076912;27;66473;-39
2023/01/16 10:23:16;;;;;;;;;;;;;;;31.51;66.11;100773.03;5075238;27;70211;-39
2023/01/16 10:25:50;;;;;;;;;;;;;;;31.50;65.96;100782.25;5080216;27;65435;-39
2023/01/16 10:28:24;;;;;;;;;;;;;;;31.54;65.97;100778.88;5075705;27;69261;-38
2023/01/16 10:30:58;;;;;;;;;;;;;;;31.50;66.41;100774.94;5079517;27;66625;-39
2023/01/16 10:33:56;;;;;;;;;;;;;;;31.52;67.07;100786.38;5085066;27;69880;-38
2023/01/16 10:36:33;;;;;;;;;;;;;;;31.52;67.83;100786.38;5077888;27;65415;-38
2023/01/16 10:39:04;;;;;;;;;;;;;;;31.51;67.96;100801.00;5080484;27;69412;-39
2023/01/16 10:50:28;;;;;;;;;;;;;;;31.83;65.72;100815.19;5075307;27;69632;-41
2023/01/16 10:53:08;;;;;;;;;;;;;;;31.89;65.44;100832.44;5080960;27;66090;-37
2023/01/16 10:55:40;;;;;;;;;;;;;;;31.92;65.38;100833.91;5078196;27;69911;-39
2023/01/16 10:58:14;;;;;;;;;;;;;;;31.94;65.38;100835.34;5062545;27;65739;-40
2023/01/16 11:00:45;;;;;;;;;;;;;;;31.94;65.55;100843.47;5078366;27;70122;-38
2023/01/16 11:03:24;;;;;;;;;;;;;;;31.93;65.69;100862.69;5079167;27;66258;-39
2023/01/16 11:06:06;;;;;;;;;;;;;;;31.93;65.50;100863.53;5076480;27;69707;-44
2023/01/16 11:08:36;;;;;;;;;;;;;;;31.92;65.39;100867.28;5051087;28;66635;-40
2023/01/16 11:18:27;;;;;;;;;;;;;;;31.92;65.25;100872.72;5076043;27;68942;-39
2023/01/16 11:19:42;;;;;;;;;;;;;;;31.89;64.91;100878.56;5059107;27;66102;-42
2023/01/16 11:22:25;;;;;;;;;;;;;;;31.88;64.70;100876.91;5077248;27;70323;-43
2023/01/16 11:25:00;;;;;;;;;;;;;;;31.87;64.45;100874.41;5078610;27;66055;-40
2023/01/16 11:27:36;;;;;;;;;;;;;;;31.87;64.53;100880.66;5076295;27;70133;-39
2023/01/16 11:30:16;;;;;;;;;;;;;;;31.86;64.59;100895.28;5077085;27;66397;-40
2023/01/16 11:32:48;;;;;;;;;;;;;;;31.84;64.34;100897.41;5062220;27;69701;-39
2023/01/16 11:35:19;;;;;;;;;;;;;;;31.82;64.21;100902.25;5076938;27;66619;-39
2023/01/16 11:37:51;;;;;;;;;;;;;;;31.62;65.58;100910.56;5074810;27;69843;-38
2023/01/16 11:40:23;;;;;;;;;;;;;;;31.50;65.64;100913.19;5050319;27;65951;-39
2023/01/16 11:46:04;;;;;;;;;;;;;;;31.32;66.15;100926.72;5075609;27;64914;-39
2023/01/16 11:48:44;;;;;;;;;;;;;;;31.27;65.68;100919.22;5078984;27;69252;-42
2023/01/16 11:51:21;;;;;;;;;;;;;;;31.22;65.77;100929.91;5062580;27;67046;-39
2023/01/16 11:53:54;;;;;;;;;;;;;;;31.20;65.52;100936.59;5082333;27;70686;-39
2023/01/16 11:56:34;;;;;;;;;;;;;;;31.16;65.36;100939.75;5079642;27;66653;-37
2023/01/16 11:59:19;;;;;;;;;;;;;;;31.14;65.79;100941.00;5084977;27;70394;-37
2023/01/16 12:02:23;;;;;;;;;;;;;;;31.13;65.41;100948.31;5064062;27;66136;-39
2023/01/16 12:08:10;;;;;;;;;;;;;;;31.08;66.42;100958.16;5085523;27;67005;-38
2023/01/16 12:10:44;;;;;;;;;;;;;;;31.08;66.26;100961.69;5078921;27;70283;-38
2023/01/16 12:16:18;;;;;;;;;;;;;;;31.09;66.58;100968.78;5080974;27;70595;-38
2023/01/16 12:19:03;;;;;;;;;;;;;;;31.10;67.13;100966.91;5082962;27;65989;-41
2023/01/16 12:21:49;;;;;;;;;;;;;;;31.09;67.05;100981.47;5084297;27;69576;-40
2023/01/16 12:24:20;;;;;;;;;;;;;;;31.09;67.07;100976.06;5082267;27;66410;-38
2023/01/16 12:27:06;;;;;;;;;;;;;;;31.09;66.92;100985.06;5073115;27;69293;-40
2023/01/16 12:29:52;;;;;;;;;;;;;;;31.01;65.69;100995.28;5079147;27;66657;-40
2023/01/16 12:32:33;;;;;;;;;;;;;;;30.75;63.05;100991.66;5085553;27;70224;-39
2023/01/16 12:35:15;;;;;;;;;;;;;;;30.60;61.39;101000.09;5083557;27;65162;-40
2023/01/16 12:37:50;;;;;;;;;;;;;;;30.50;60.55;101005.94;5076942;27;70374;-37
2023/01/16 12:40:29;;;;;;;;;;;;;;;30.40;59.82;101004.78;5079665;27;66194;-42
2023/01/16 12:43:23;;;;;;;;;;;;;;;30.34;58.89;101009.16;5080208;27;70376;-43
2023/01/16 12:45:57;;;;;;;;;;;;;;;30.22;57.86;101017.09;5077056;27;67142;-38
2023/01/16 12:48:41;;;;;;;;;;;;;;;30.13;57.66;101017.50;5061372;27;70733;-41
2023/01/16 12:51:31;;;;;;;;;;;;;;;30.02;57.41;101019.81;5061312;28;66975;-42
2023/01/16 12:54:11;;;;;;;;;;;;;;;29.92;56.40;101019.44;5079699;27;70116;-41
2023/01/16 12:56:56;;;;;;;;;;;;;;;29.80;55.04;101021.94;5058822;27;66239;-44
2023/01/16 12:59:44;;;;;;;;;;;;;;;29.70;54.19;101032.34;5079753;27;69269;-38
2023/01/16 13:02:21;;;;;;;;;;;;;;;29.61;53.34;101028.16;5074583;27;66723;-40
2023/01/16 13:05:18;;;;;;;;;;;;;;;29.54;52.18;101035.44;5076554;27;69945;-42
2023/01/16 13:08:09;;;;;;;;;;;;;;;29.46;51.85;101039.16;5072320;27;66718;-41
2023/01/16 13:13:35;;;;;;;;;;;;;;;29.34;51.72;101043.53;5079432;27;66749;-39
2023/01/16 13:16:12;;;;;;;;;;;;;;;29.32;52.46;101045.59;5078335;27;69813;-40
2023/01/16 13:18:43;;;;;;;;;;;;;;;29.28;52.05;101047.91;5078405;27;66184;-40
2023/01/16 13:21:16;;;;;;;;;;;;;;;29.26;52.23;101044.56;5074589;27;71295;-43
2023/01/16 13:23:53;;;;;;;;;;;;;;;29.25;52.47;101055.56;5061173;28;66256;-41
2023/01/16 13:26:24;;;;;;;;;;;;;;;29.20;53.10;101048.09;5076009;27;69745;-43
2023/01/16 13:29:24;;;;;;;;;;;;;;;29.18;52.50;101050.16;5060988;28;66197;-41
2023/01/16 13:31:58;;;;;;;;;;;;;;;29.18;51.41;101050.16;5063709;27;70466;-40
2023/01/16 13:34:51;;;;;;;;;;;;;;;29.14;50.98;101054.28;5077124;27;66642;-39
2023/01/16 13:37:40;;;;;;;;;;;;;;;29.13;50.58;101058.03;5051586;27;71079;-44
2023/01/16 13:40:54;;;;;;;;;;;;;;;29.12;50.14;101062.59;5038098;27;64564;-41
2023/01/16 13:46:19;;;;;;;;;;;;;;;29.06;49.44;101065.28;5081495;27;66287;-40
2023/01/16 13:48:52;;;;;;;;;;;;;;;29.06;50.00;101066.13;5078169;27;69900;-42
2023/01/16 13:51:23;;;;;;;;;;;;;;;29.09;50.76;101059.50;5061377;27;66808;-41
2023/01/16 13:54:03;;;;;;;;;;;;;;;29.12;50.64;101061.78;5077311;27;69278;-39
2023/01/16 13:56:33;;;;;;;;;;;;;;;29.15;50.38;101069.47;5046702;27;65498;-42
2023/01/16 13:59:07;;;;;;;;;;;;;;;29.12;50.29;101072.59;5074022;27;69846;-38
2023/01/16 14:01:44;;;;;;;;;;;;;;;29.13;50.14;101066.13;5063807;27;66218;-39
2023/01/16 14:04:14;;;;;;;;;;;;;;;29.13;49.53;101074.25;5082668;27;70635;-39
2023/01/16 14:10:12;;;;;;;;;;;;;;;29.11;49.91;101070.91;5041196;27;69715;-40
2023/01/16 14:12:46;;;;;;;;;;;;;;;29.07;50.97;101066.97;5023653;27;67384;-43
2023/01/16 14:18:15;;;;;;;;;;;;;;;28.94;49.56;101060.44;5070571;27;66224;-41
2023/01/16 14:20:51;;;;;;;;;;;;;;;28.89;49.41;101070.19;5079330;27;69413;-42